sensor_id;sensor_type;location;lat;lon;timestamp;temperature;humidity
16160;DHT22;8185;57.818;15.224;2023-07-20T00:00:51;10.70;99.90
16160;DHT22;8185;57.818;15.224;2023-07-20T00:03:21;10.60;99.90
16160;DHT22;8185;57.818;15.224;2023-07-20T00:05:51;10.60;99.90
16160;DHT22;8185;57.818;15.224;2023-07-20T00:08:20;10.60;99.90
16160;DHT22;8185;57.818;15.224;2023-07-20T00:10:48;10.60;99.90
16160;DHT22;8185;57.818;15.224;2023-07-20T00:13:15;10.50;99.90
16160;DHT22;8185;57.818;15.224;2023-07-20T00:15:44;10.50;99.90
16160;DHT22;8185;57.818;15.224;2023-07-20T00:18:11;10.40;99.90
16160;DHT22;8185;57.818;15.224;2023-07-20T00:20:39;10.40;99.90
16160;DHT22;8185;57.818;15.224;2023-07-20T00:23:06;10.40;99.90
16160;DHT22;8185;57.818;15.224;2023-07-20T00:25:34;10.40;99.90
16160;DHT22;8185;57.818;15.224;2023-07-20T00:28:03;10.30;99.90
16160;DHT22;8185;57.818;15.224;2023-07-20T00:30:30;10.30;99.90
16160;DHT22;8185;57.818;15.224;2023-07-20T00:32:57;10.30;99.90
16160;DHT22;8185;57.818;15.224;2023-07-20T00:35:24;10.20;99.90
16160;DHT22;8185;57.818;15.224;2023-07-20T00:37:51;10.20;99.90
16160;DHT22;8185;57.818;15.224;2023-07-20T00:40:19;10.20;99.90
16160;DHT22;8185;57.818;15.224;2023-07-20T00:42:46;10.20;99.90
16160;DHT22;8185;57.818;15.224;2023-07-20T00:45:14;10.10;99.90
16160;DHT22;8185;57.818;15.224;2023-07-20T00:47:42;10.10;99.90
16160;DHT22;8185;57.818;15.224;2023-07-20T00:50:09;10.10;99.90
16160;DHT22;8185;57.818;15.224;2023-07-20T00:52:37;10.10;99.90
16160;DHT22;8185;57.818;15.224;2023-07-20T00:55:07;10.10;99.90
16160;DHT22;8185;57.818;15.224;2023-07-20T00:57:34;10.00;99.90
16160;DHT22;8185;57.818;15.224;2023-07-20T01:00:02;10.00;99.90
16160;DHT22;8185;57.818;15.224;2023-07-20T01:02:30;10.00;99.90
16160;DHT22;8185;57.818;15.224;2023-07-20T01:04:57;10.00;99.90
16160;DHT22;8185;57.818;15.224;2023-07-20T01:07:28;10.00;99.90
16160;DHT22;8185;57.818;15.224;2023-07-20T01:10:02;10.00;99.90
16160;DHT22;8185;57.818;15.224;2023-07-20T01:12:40;10.00;99.90
16160;DHT22;8185;57.818;15.224;2023-07-20T01:15:08;10.00;99.90
16160;DHT22;8185;57.818;15.224;2023-07-20T01:17:38;10.00;99.90
16160;DHT22;8185;57.818;15.224;2023-07-20T01:20:05;9.90;99.90
16160;DHT22;8185;57.818;15.224;2023-07-20T01:22:58;9.90;99.90
16160;DHT22;8185;57.818;15.224;2023-07-20T01:28:57;9.90;99.90
16160;DHT22;8185;57.818;15.224;2023-07-20T01:31:34;9.90;99.90
16160;DHT22;8185;57.818;15.224;2023-07-20T01:34:02;9.90;99.90
16160;DHT22;8185;57.818;15.224;2023-07-20T01:36:34;9.90;99.90
16160;DHT22;8185;57.818;15.224;2023-07-20T01:39:02;9.90;99.90
16160;DHT22;8185;57.818;15.224;2023-07-20T01:41:30;9.90;99.90
16160;DHT22;8185;57.818;15.224;2023-07-20T01:43:58;9.90;99.90
16160;DHT22;8185;57.818;15.224;2023-07-20T01:46:26;9.90;99.90
16160;DHT22;8185;57.818;15.224;2023-07-20T01:48:54;9.90;99.90
16160;DHT22;8185;57.818;15.224;2023-07-20T01:51:22;9.90;99.90
16160;DHT22;8185;57.818;15.224;2023-07-20T01:53:49;9.90;99.90
16160;DHT22;8185;57.818;15.224;2023-07-20T01:56:16;9.80;99.90
16160;DHT22;8185;57.818;15.224;2023-07-20T01:58:43;9.90;99.90
16160;DHT22;8185;57.818;15.224;2023-07-20T02:01:10;9.90;99.90
16160;DHT22;8185;57.818;15.224;2023-07-20T02:03:37;9.80;99.90
16160;DHT22;8185;57.818;15.224;2023-07-20T02:06:06;9.80;99.90
16160;DHT22;8185;57.818;15.224;2023-07-20T02:08:33;9.80;99.90
16160;DHT22;8185;57.818;15.224;2023-07-20T02:11:00;9.80;99.90
16160;DHT22;8185;57.818;15.224;2023-07-20T02:13:28;9.80;99.90
16160;DHT22;8185;57.818;15.224;2023-07-20T02:15:55;9.90;99.90
16160;DHT22;8185;57.818;15.224;2023-07-20T02:18:22;9.90;99.90
16160;DHT22;8185;57.818;15.224;2023-07-20T02:20:49;9.90;99.90
16160;DHT22;8185;57.818;15.224;2023-07-20T02:23:18;9.90;99.90
16160;DHT22;8185;57.818;15.224;2023-07-20T02:25:45;9.90;99.90
16160;DHT22;8185;57.818;15.224;2023-07-20T02:28:13;9.90;99.90
16160;DHT22;8185;57.818;15.224;2023-07-20T02:30:41;9.90;99.90
16160;DHT22;8185;57.818;15.224;2023-07-20T02:33:08;9.80;99.90
16160;DHT22;8185;57.818;15.224;2023-07-20T02:35:35;9.90;99.90
16160;DHT22;8185;57.818;15.224;2023-07-20T02:38:02;9.90;99.90
16160;DHT22;8185;57.818;15.224;2023-07-20T02:40:31;9.90;99.90
16160;DHT22;8185;57.818;15.224;2023-07-20T02:42:58;9.90;99.90
16160;DHT22;8185;57.818;15.224;2023-07-20T02:45:26;9.90;99.90
16160;DHT22;8185;57.818;15.224;2023-07-20T02:47:53;10.00;99.90
16160;DHT22;8185;57.818;15.224;2023-07-20T02:50:20;10.00;99.90
16160;DHT22;8185;57.818;15.224;2023-07-20T02:52:47;10.10;99.90
16160;DHT22;8185;57.818;15.224;2023-07-20T02:55:14;10.10;99.90
16160;DHT22;8185;57.818;15.224;2023-07-20T02:57:43;10.20;99.90
16160;DHT22;8185;57.818;15.224;2023-07-20T03:00:11;10.20;99.90
16160;DHT22;8185;57.818;15.224;2023-07-20T03:02:41;10.20;99.90
16160;DHT22;8185;57.818;15.224;2023-07-20T03:05:08;10.20;99.90
16160;DHT22;8185;57.818;15.224;2023-07-20T03:07:36;10.20;99.90
16160;DHT22;8185;57.818;15.224;2023-07-20T03:10:04;10.20;99.90
16160;DHT22;8185;57.818;15.224;2023-07-20T03:12:33;10.30;99.90
16160;DHT22;8185;57.818;15.224;2023-07-20T03:15:02;10.30;99.90
16160;DHT22;8185;57.818;15.224;2023-07-20T03:17:29;10.40;99.90
16160;DHT22;8185;57.818;15.224;2023-07-20T03:19:56;10.40;99.90
16160;DHT22;8185;57.818;15.224;2023-07-20T03:22:25;10.40;99.90
16160;DHT22;8185;57.818;15.224;2023-07-20T03:24:52;10.40;99.90
16160;DHT22;8185;57.818;15.224;2023-07-20T03:27:19;10.40;99.90
16160;DHT22;8185;57.818;15.224;2023-07-20T03:29:47;10.40;99.90
16160;DHT22;8185;57.818;15.224;2023-07-20T03:32:15;10.40;99.90
16160;DHT22;8185;57.818;15.224;2023-07-20T03:34:42;10.50;99.90
16160;DHT22;8185;57.818;15.224;2023-07-20T03:37:10;10.50;99.90
16160;DHT22;8185;57.818;15.224;2023-07-20T03:39:37;10.50;99.90
16160;DHT22;8185;57.818;15.224;2023-07-20T03:42:05;10.60;99.90
16160;DHT22;8185;57.818;15.224;2023-07-20T03:44:32;10.60;99.90
16160;DHT22;8185;57.818;15.224;2023-07-20T03:46:59;10.60;99.90
16160;DHT22;8185;57.818;15.224;2023-07-20T03:49:28;10.60;99.90
16160;DHT22;8185;57.818;15.224;2023-07-20T03:51:55;10.60;99.90
16160;DHT22;8185;57.818;15.224;2023-07-20T03:54:22;10.60;99.90
16160;DHT22;8185;57.818;15.224;2023-07-20T03:56:49;10.70;99.90
16160;DHT22;8185;57.818;15.224;2023-07-20T03:59:16;10.60;99.90
16160;DHT22;8185;57.818;15.224;2023-07-20T04:01:43;10.70;99.90
16160;DHT22;8185;57.818;15.224;2023-07-20T04:04:10;10.70;99.90
16160;DHT22;8185;57.818;15.224;2023-07-20T04:06:39;10.80;99.90
16160;DHT22;8185;57.818;15.224;2023-07-20T04:09:06;10.90;99.90
16160;DHT22;8185;57.818;15.224;2023-07-20T04:11:33;11.00;99.90
16160;DHT22;8185;57.818;15.224;2023-07-20T04:14:00;11.00;99.90
16160;DHT22;8185;57.818;15.224;2023-07-20T04:16:27;11.10;99.90
16160;DHT22;8185;57.818;15.224;2023-07-20T04:18:55;11.10;99.90
16160;DHT22;8185;57.818;15.224;2023-07-20T04:21:22;11.20;99.90
16160;DHT22;8185;57.818;15.224;2023-07-20T04:23:51;11.30;99.90
16160;DHT22;8185;57.818;15.224;2023-07-20T04:26:18;11.30;99.90
16160;DHT22;8185;57.818;15.224;2023-07-20T04:28:45;11.40;99.90
16160;DHT22;8185;57.818;15.224;2023-07-20T04:31:14;11.40;99.90
16160;DHT22;8185;57.818;15.224;2023-07-20T04:33:42;11.50;99.90
16160;DHT22;8185;57.818;15.224;2023-07-20T04:36:09;11.50;99.90
16160;DHT22;8185;57.818;15.224;2023-07-20T04:38:36;11.60;99.90
16160;DHT22;8185;57.818;15.224;2023-07-20T04:41:05;11.60;99.90
16160;DHT22;8185;57.818;15.224;2023-07-20T04:43:32;11.60;99.90
16160;DHT22;8185;57.818;15.224;2023-07-20T04:45:59;11.70;99.90
16160;DHT22;8185;57.818;15.224;2023-07-20T04:48:26;11.80;99.90
16160;DHT22;8185;57.818;15.224;2023-07-20T04:50:53;11.80;99.90
16160;DHT22;8185;57.818;15.224;2023-07-20T04:53:21;11.90;99.90
16160;DHT22;8185;57.818;15.224;2023-07-20T04:55:49;12.00;99.90
16160;DHT22;8185;57.818;15.224;2023-07-20T04:58:19;12.00;99.90
16160;DHT22;8185;57.818;15.224;2023-07-20T05:00:47;12.00;99.90
16160;DHT22;8185;57.818;15.224;2023-07-20T05:03:14;12.00;99.90
16160;DHT22;8185;57.818;15.224;2023-07-20T05:05:42;12.10;99.90
16160;DHT22;8185;57.818;15.224;2023-07-20T05:08:09;12.10;99.90
16160;DHT22;8185;57.818;15.224;2023-07-20T05:10:36;12.10;99.90
16160;DHT22;8185;57.818;15.224;2023-07-20T05:13:03;12.20;99.90
16160;DHT22;8185;57.818;15.224;2023-07-20T05:15:33;12.20;99.90
16160;DHT22;8185;57.818;15.224;2023-07-20T05:18:00;12.40;99.90
16160;DHT22;8185;57.818;15.224;2023-07-20T05:20:27;12.30;99.90
16160;DHT22;8185;57.818;15.224;2023-07-20T05:22:55;12.30;99.90
16160;DHT22;8185;57.818;15.224;2023-07-20T05:25:22;12.20;99.90
16160;DHT22;8185;57.818;15.224;2023-07-20T05:27:49;12.30;99.90
16160;DHT22;8185;57.818;15.224;2023-07-20T05:30:17;12.30;99.90
16160;DHT22;8185;57.818;15.224;2023-07-20T05:32:46;12.30;99.90
16160;DHT22;8185;57.818;15.224;2023-07-20T05:35:17;12.30;99.90
16160;DHT22;8185;57.818;15.224;2023-07-20T05:37:44;12.30;99.90
16160;DHT22;8185;57.818;15.224;2023-07-20T05:40:12;12.30;99.90
16160;DHT22;8185;57.818;15.224;2023-07-20T05:42:39;12.50;99.90
16160;DHT22;8185;57.818;15.224;2023-07-20T05:45:07;12.60;99.90
16160;DHT22;8185;57.818;15.224;2023-07-20T05:47:34;12.90;99.90
16160;DHT22;8185;57.818;15.224;2023-07-20T05:50:03;13.20;99.90
16160;DHT22;8185;57.818;15.224;2023-07-20T05:52:30;13.40;99.90
16160;DHT22;8185;57.818;15.224;2023-07-20T05:54:57;13.50;99.90
16160;DHT22;8185;57.818;15.224;2023-07-20T05:57:24;13.50;99.90
16160;DHT22;8185;57.818;15.224;2023-07-20T05:59:52;13.60;99.90
16160;DHT22;8185;57.818;15.224;2023-07-20T06:02:19;13.60;99.90
16160;DHT22;8185;57.818;15.224;2023-07-20T06:04:46;13.80;99.90
16160;DHT22;8185;57.818;15.224;2023-07-20T06:07:14;13.90;99.90
16160;DHT22;8185;57.818;15.224;2023-07-20T06:09:42;14.00;99.90
16160;DHT22;8185;57.818;15.224;2023-07-20T06:12:09;13.90;99.90
16160;DHT22;8185;57.818;15.224;2023-07-20T06:14:36;13.90;99.90
16160;DHT22;8185;57.818;15.224;2023-07-20T06:17:04;13.80;99.90
16160;DHT22;8185;57.818;15.224;2023-07-20T06:19:32;13.70;99.90
16160;DHT22;8185;57.818;15.224;2023-07-20T06:21:59;13.60;99.90
16160;DHT22;8185;57.818;15.224;2023-07-20T06:24:27;13.50;99.90
16160;DHT22;8185;57.818;15.224;2023-07-20T06:26:55;13.70;99.90
16160;DHT22;8185;57.818;15.224;2023-07-20T06:29:22;13.80;99.90
16160;DHT22;8185;57.818;15.224;2023-07-20T06:31:49;13.70;99.90
16160;DHT22;8185;57.818;15.224;2023-07-20T06:34:16;13.90;99.90
16160;DHT22;8185;57.818;15.224;2023-07-20T06:36:43;13.70;99.90
16160;DHT22;8185;57.818;15.224;2023-07-20T06:39:10;13.90;99.90
16160;DHT22;8185;57.818;15.224;2023-07-20T06:41:39;13.80;99.90
16160;DHT22;8185;57.818;15.224;2023-07-20T06:44:06;13.70;99.90
16160;DHT22;8185;57.818;15.224;2023-07-20T06:46:33;13.70;99.90
16160;DHT22;8185;57.818;15.224;2023-07-20T06:49:01;13.90;99.90
16160;DHT22;8185;57.818;15.224;2023-07-20T06:51:28;14.10;99.90
16160;DHT22;8185;57.818;15.224;2023-07-20T06:53:55;14.50;99.90
16160;DHT22;8185;57.818;15.224;2023-07-20T06:56:22;14.30;99.90
16160;DHT22;8185;57.818;15.224;2023-07-20T06:58:51;14.20;99.90
16160;DHT22;8185;57.818;15.224;2023-07-20T07:01:18;14.10;99.90
16160;DHT22;8185;57.818;15.224;2023-07-20T07:03:47;13.90;99.90
16160;DHT22;8185;57.818;15.224;2023-07-20T07:06:14;14.10;99.90
16160;DHT22;8185;57.818;15.224;2023-07-20T07:08:41;14.60;99.90
16160;DHT22;8185;57.818;15.224;2023-07-20T07:11:10;14.70;99.90
16160;DHT22;8185;57.818;15.224;2023-07-20T07:13:37;15.00;99.90
16160;DHT22;8185;57.818;15.224;2023-07-20T07:16:06;14.90;99.90
16160;DHT22;8185;57.818;15.224;2023-07-20T07:18:36;14.60;99.90
16160;DHT22;8185;57.818;15.224;2023-07-20T07:21:06;14.50;99.90
16160;DHT22;8185;57.818;15.224;2023-07-20T07:23:33;14.40;99.90
16160;DHT22;8185;57.818;15.224;2023-07-20T07:26:00;14.50;99.90
16160;DHT22;8185;57.818;15.224;2023-07-20T07:28:28;14.50;99.90
16160;DHT22;8185;57.818;15.224;2023-07-20T07:30:56;14.50;99.90
16160;DHT22;8185;57.818;15.224;2023-07-20T07:33:25;14.60;99.90
16160;DHT22;8185;57.818;15.224;2023-07-20T07:35:52;14.40;99.90
16160;DHT22;8185;57.818;15.224;2023-07-20T07:38:19;14.40;99.90
16160;DHT22;8185;57.818;15.224;2023-07-20T07:40:46;14.40;99.90
16160;DHT22;8185;57.818;15.224;2023-07-20T07:43:14;14.40;99.90
16160;DHT22;8185;57.818;15.224;2023-07-20T07:45:41;14.30;99.90
16160;DHT22;8185;57.818;15.224;2023-07-20T07:48:08;14.30;99.90
16160;DHT22;8185;57.818;15.224;2023-07-20T07:50:39;14.20;99.90
16160;DHT22;8185;57.818;15.224;2023-07-20T07:53:08;14.20;99.90
16160;DHT22;8185;57.818;15.224;2023-07-20T07:55:36;14.20;99.90
16160;DHT22;8185;57.818;15.224;2023-07-20T07:58:03;14.20;99.90
16160;DHT22;8185;57.818;15.224;2023-07-20T08:00:30;14.00;99.90
16160;DHT22;8185;57.818;15.224;2023-07-20T08:02:57;14.10;99.90
16160;DHT22;8185;57.818;15.224;2023-07-20T08:05:24;14.20;99.90
16160;DHT22;8185;57.818;15.224;2023-07-20T08:07:53;14.50;99.90
16160;DHT22;8185;57.818;15.224;2023-07-20T08:10:21;14.70;99.90
16160;DHT22;8185;57.818;15.224;2023-07-20T08:12:49;14.80;99.90
16160;DHT22;8185;57.818;15.224;2023-07-20T08:15:17;15.20;99.90
16160;DHT22;8185;57.818;15.224;2023-07-20T08:17:44;15.50;99.90
16160;DHT22;8185;57.818;15.224;2023-07-20T08:20:14;15.50;99.90
16160;DHT22;8185;57.818;15.224;2023-07-20T08:22:43;15.30;99.90
16160;DHT22;8185;57.818;15.224;2023-07-20T08:25:13;15.10;99.90
16160;DHT22;8185;57.818;15.224;2023-07-20T08:27:41;15.10;99.90
16160;DHT22;8185;57.818;15.224;2023-07-20T08:30:10;15.40;99.90
16160;DHT22;8185;57.818;15.224;2023-07-20T08:32:37;15.50;99.90
16160;DHT22;8185;57.818;15.224;2023-07-20T08:35:06;15.10;99.90
16160;DHT22;8185;57.818;15.224;2023-07-20T08:37:33;15.10;99.90
16160;DHT22;8185;57.818;15.224;2023-07-20T08:40:00;14.80;99.90
16160;DHT22;8185;57.818;15.224;2023-07-20T08:42:33;14.60;99.90
16160;DHT22;8185;57.818;15.224;2023-07-20T08:45:05;14.70;99.90
16160;DHT22;8185;57.818;15.224;2023-07-20T08:47:33;14.10;99.90
16160;DHT22;8185;57.818;15.224;2023-07-20T08:50:03;13.90;99.90
16160;DHT22;8185;57.818;15.224;2023-07-20T08:52:34;13.80;99.90
16160;DHT22;8185;57.818;15.224;2023-07-20T08:55:02;13.90;99.90
16160;DHT22;8185;57.818;15.224;2023-07-20T08:57:33;14.00;99.90
16160;DHT22;8185;57.818;15.224;2023-07-20T09:00:02;13.90;99.90
16160;DHT22;8185;57.818;15.224;2023-07-20T09:02:35;14.00;99.90
16160;DHT22;8185;57.818;15.224;2023-07-20T09:05:06;13.80;99.90
16160;DHT22;8185;57.818;15.224;2023-07-20T09:07:35;13.60;99.90
16160;DHT22;8185;57.818;15.224;2023-07-20T09:10:04;13.50;99.90
16160;DHT22;8185;57.818;15.224;2023-07-20T09:12:35;13.40;99.90
16160;DHT22;8185;57.818;15.224;2023-07-20T09:15:02;13.70;99.90
16160;DHT22;8185;57.818;15.224;2023-07-20T09:17:29;13.70;99.90
16160;DHT22;8185;57.818;15.224;2023-07-20T09:19:57;13.90;99.90
16160;DHT22;8185;57.818;15.224;2023-07-20T09:22:29;14.00;99.90
16160;DHT22;8185;57.818;15.224;2023-07-20T09:24:58;14.20;99.90
16160;DHT22;8185;57.818;15.224;2023-07-20T09:27:37;14.20;99.90
16160;DHT22;8185;57.818;15.224;2023-07-20T09:30:11;14.30;99.90
16160;DHT22;8185;57.818;15.224;2023-07-20T09:32:49;14.50;99.90
16160;DHT22;8185;57.818;15.224;2023-07-20T09:35:20;15.10;99.90
16160;DHT22;8185;57.818;15.224;2023-07-20T09:37:50;15.40;99.90
16160;DHT22;8185;57.818;15.224;2023-07-20T09:40:19;15.60;99.90
16160;DHT22;8185;57.818;15.224;2023-07-20T09:42:48;15.80;99.90
16160;DHT22;8185;57.818;15.224;2023-07-20T09:45:18;16.20;99.90
16160;DHT22;8185;57.818;15.224;2023-07-20T09:47:46;15.90;99.90
16160;DHT22;8185;57.818;15.224;2023-07-20T09:50:14;16.00;99.90
16160;DHT22;8185;57.818;15.224;2023-07-20T09:52:41;15.90;99.90
16160;DHT22;8185;57.818;15.224;2023-07-20T09:55:10;15.70;99.90
16160;DHT22;8185;57.818;15.224;2023-07-20T09:57:40;15.90;99.90
16160;DHT22;8185;57.818;15.224;2023-07-20T10:00:09;16.10;99.90
16160;DHT22;8185;57.818;15.224;2023-07-20T10:02:42;16.30;99.90
16160;DHT22;8185;57.818;15.224;2023-07-20T10:05:12;16.10;99.90
16160;DHT22;8185;57.818;15.224;2023-07-20T10:07:45;16.20;99.90
16160;DHT22;8185;57.818;15.224;2023-07-20T10:10:18;16.40;99.90
16160;DHT22;8185;57.818;15.224;2023-07-20T10:12:48;17.00;99.90
16160;DHT22;8185;57.818;15.224;2023-07-20T10:15:24;16.90;99.90
16160;DHT22;8185;57.818;15.224;2023-07-20T10:18:03;17.00;99.90
16160;DHT22;8185;57.818;15.224;2023-07-20T10:20:36;17.00;99.90
16160;DHT22;8185;57.818;15.224;2023-07-20T10:23:07;16.90;99.90
16160;DHT22;8185;57.818;15.224;2023-07-20T10:25:35;17.10;99.90
16160;DHT22;8185;57.818;15.224;2023-07-20T10:28:05;17.40;99.90
16160;DHT22;8185;57.818;15.224;2023-07-20T10:30:34;17.70;99.90
16160;DHT22;8185;57.818;15.224;2023-07-20T10:33:02;18.10;99.90
16160;DHT22;8185;57.818;15.224;2023-07-20T10:35:29;18.20;99.90
16160;DHT22;8185;57.818;15.224;2023-07-20T10:38:00;17.50;99.90
16160;DHT22;8185;57.818;15.224;2023-07-20T10:40:29;16.90;99.90
16160;DHT22;8185;57.818;15.224;2023-07-20T10:43:02;16.70;99.90
16160;DHT22;8185;57.818;15.224;2023-07-20T10:45:40;16.50;99.90
16160;DHT22;8185;57.818;15.224;2023-07-20T10:48:14;16.80;99.90
16160;DHT22;8185;57.818;15.224;2023-07-20T10:50:43;17.30;99.90
16160;DHT22;8185;57.818;15.224;2023-07-20T10:53:11;17.50;99.90
16160;DHT22;8185;57.818;15.224;2023-07-20T10:55:39;17.60;99.90
16160;DHT22;8185;57.818;15.224;2023-07-20T10:58:08;17.20;99.90
16160;DHT22;8185;57.818;15.224;2023-07-20T11:00:58;17.00;99.90
16160;DHT22;8185;57.818;15.224;2023-07-20T11:03:28;17.20;99.90
16160;DHT22;8185;57.818;15.224;2023-07-20T11:05:57;17.00;99.90
16160;DHT22;8185;57.818;15.224;2023-07-20T11:08:48;17.10;99.90
16160;DHT22;8185;57.818;15.224;2023-07-20T11:11:25;17.00;99.90
16160;DHT22;8185;57.818;15.224;2023-07-20T11:13:57;17.10;99.90
16160;DHT22;8185;57.818;15.224;2023-07-20T11:16:36;17.20;99.90
16160;DHT22;8185;57.818;15.224;2023-07-20T11:19:04;16.90;99.90
16160;DHT22;8185;57.818;15.224;2023-07-20T11:21:36;17.00;99.90
16160;DHT22;8185;57.818;15.224;2023-07-20T11:24:05;17.60;99.90
16160;DHT22;8185;57.818;15.224;2023-07-20T11:26:40;17.90;99.90
16160;DHT22;8185;57.818;15.224;2023-07-20T11:29:08;18.30;99.90
16160;DHT22;8185;57.818;15.224;2023-07-20T11:31:37;18.40;99.90
16160;DHT22;8185;57.818;15.224;2023-07-20T11:34:04;18.50;99.90
16160;DHT22;8185;57.818;15.224;2023-07-20T11:36:32;18.80;99.90
16160;DHT22;8185;57.818;15.224;2023-07-20T11:39:00;18.50;99.90
16160;DHT22;8185;57.818;15.224;2023-07-20T11:41:31;19.70;99.90
16160;DHT22;8185;57.818;15.224;2023-07-20T11:43:58;19.20;99.90
16160;DHT22;8185;57.818;15.224;2023-07-20T11:46:27;19.50;99.90
16160;DHT22;8185;57.818;15.224;2023-07-20T11:48:59;19.40;99.90
16160;DHT22;8185;57.818;15.224;2023-07-20T11:51:27;19.70;99.90
16160;DHT22;8185;57.818;15.224;2023-07-20T11:53:55;19.00;99.90
16160;DHT22;8185;57.818;15.224;2023-07-20T11:56:23;18.20;99.90
16160;DHT22;8185;57.818;15.224;2023-07-20T11:58:50;18.00;99.90
16160;DHT22;8185;57.818;15.224;2023-07-20T12:01:17;18.10;99.90
16160;DHT22;8185;57.818;15.224;2023-07-20T12:03:48;19.10;99.90
16160;DHT22;8185;57.818;15.224;2023-07-20T12:06:17;18.90;99.90
16160;DHT22;8185;57.818;15.224;2023-07-20T12:08:44;18.40;99.90
16160;DHT22;8185;57.818;15.224;2023-07-20T12:11:11;17.90;99.90
16160;DHT22;8185;57.818;15.224;2023-07-20T12:13:40;17.50;99.90
16160;DHT22;8185;57.818;15.224;2023-07-20T12:16:12;17.40;99.90
16160;DHT22;8185;57.818;15.224;2023-07-20T12:18:40;17.10;99.90
16160;DHT22;8185;57.818;15.224;2023-07-20T12:21:08;17.20;99.90
16160;DHT22;8185;57.818;15.224;2023-07-20T12:23:38;17.30;99.90
16160;DHT22;8185;57.818;15.224;2023-07-20T12:26:08;17.60;99.90
16160;DHT22;8185;57.818;15.224;2023-07-20T12:28:39;18.10;99.90
16160;DHT22;8185;57.818;15.224;2023-07-20T12:31:06;19.50;99.90
16160;DHT22;8185;57.818;15.224;2023-07-20T12:33:34;20.60;99.90
16160;DHT22;8185;57.818;15.224;2023-07-20T12:36:01;21.20;99.90
16160;DHT22;8185;57.818;15.224;2023-07-20T12:38:29;19.90;99.90
16160;DHT22;8185;57.818;15.224;2023-07-20T12:41:00;19.20;99.90
16160;DHT22;8185;57.818;15.224;2023-07-20T12:43:28;18.90;99.90
16160;DHT22;8185;57.818;15.224;2023-07-20T12:45:56;18.10;99.90
16160;DHT22;8185;57.818;15.224;2023-07-20T12:48:23;17.80;99.90
16160;DHT22;8185;57.818;15.224;2023-07-20T12:50:50;17.30;99.90
16160;DHT22;8185;57.818;15.224;2023-07-20T12:53:19;17.40;99.90
16160;DHT22;8185;57.818;15.224;2023-07-20T12:55:47;17.20;99.90
16160;DHT22;8185;57.818;15.224;2023-07-20T12:58:17;17.00;99.90
16160;DHT22;8185;57.818;15.224;2023-07-20T13:00:44;16.90;99.90
16160;DHT22;8185;57.818;15.224;2023-07-20T13:03:11;16.70;99.90
16160;DHT22;8185;57.818;15.224;2023-07-20T13:05:40;16.90;99.90
16160;DHT22;8185;57.818;15.224;2023-07-20T13:08:07;17.00;99.90
16160;DHT22;8185;57.818;15.224;2023-07-20T13:10:37;17.10;99.90
16160;DHT22;8185;57.818;15.224;2023-07-20T13:13:06;17.30;99.90
16160;DHT22;8185;57.818;15.224;2023-07-20T13:15:41;17.50;99.90
16160;DHT22;8185;57.818;15.224;2023-07-20T13:18:10;18.60;99.90
16160;DHT22;8185;57.818;15.224;2023-07-20T13:20:38;18.80;99.90
16160;DHT22;8185;57.818;15.224;2023-07-20T13:23:06;19.10;99.90
16160;DHT22;8185;57.818;15.224;2023-07-20T13:25:34;18.90;99.90
16160;DHT22;8185;57.818;15.224;2023-07-20T13:28:01;18.90;99.90
16160;DHT22;8185;57.818;15.224;2023-07-20T13:30:28;19.10;99.90
16160;DHT22;8185;57.818;15.224;2023-07-20T13:32:57;20.20;99.90
16160;DHT22;8185;57.818;15.224;2023-07-20T13:35:24;20.70;99.90
16160;DHT22;8185;57.818;15.224;2023-07-20T13:37:51;21.90;99.90
16160;DHT22;8185;57.818;15.224;2023-07-20T13:40:19;21.60;99.90
16160;DHT22;8185;57.818;15.224;2023-07-20T13:42:48;22.10;99.90
16160;DHT22;8185;57.818;15.224;2023-07-20T13:45:15;21.00;99.90
16160;DHT22;8185;57.818;15.224;2023-07-20T13:47:43;19.60;99.90
16160;DHT22;8185;57.818;15.224;2023-07-20T13:50:12;19.50;99.90
16160;DHT22;8185;57.818;15.224;2023-07-20T13:52:39;19.10;99.90
16160;DHT22;8185;57.818;15.224;2023-07-20T13:55:07;19.40;99.90
16160;DHT22;8185;57.818;15.224;2023-07-20T13:57:34;20.80;99.90
16160;DHT22;8185;57.818;15.224;2023-07-20T14:00:01;21.40;99.90
16160;DHT22;8185;57.818;15.224;2023-07-20T14:02:29;21.80;99.90
16160;DHT22;8185;57.818;15.224;2023-07-20T14:04:56;20.90;99.90
16160;DHT22;8185;57.818;15.224;2023-07-20T14:07:25;19.80;99.90
16160;DHT22;8185;57.818;15.224;2023-07-20T14:09:53;18.80;99.90
16160;DHT22;8185;57.818;15.224;2023-07-20T14:12:20;18.60;99.90
16160;DHT22;8185;57.818;15.224;2023-07-20T14:14:50;18.30;99.90
16160;DHT22;8185;57.818;15.224;2023-07-20T14:17:17;18.40;99.90
16160;DHT22;8185;57.818;15.224;2023-07-20T14:19:44;18.90;99.90
16160;DHT22;8185;57.818;15.224;2023-07-20T14:22:12;20.50;99.90
16160;DHT22;8185;57.818;15.224;2023-07-20T14:24:40;22.70;99.90
16160;DHT22;8185;57.818;15.224;2023-07-20T14:27:07;23.60;99.90
16160;DHT22;8185;57.818;15.224;2023-07-20T14:29:35;24.50;99.90
16160;DHT22;8185;57.818;15.224;2023-07-20T14:32:03;22.40;99.90
16160;DHT22;8185;57.818;15.224;2023-07-20T14:34:32;20.80;99.90
16160;DHT22;8185;57.818;15.224;2023-07-20T14:36:59;20.50;99.90
16160;DHT22;8185;57.818;15.224;2023-07-20T14:39:26;19.60;99.90
16160;DHT22;8185;57.818;15.224;2023-07-20T14:41:55;20.00;99.90
16160;DHT22;8185;57.818;15.224;2023-07-20T14:44:23;21.20;99.90
16160;DHT22;8185;57.818;15.224;2023-07-20T14:46:50;21.80;99.90
16160;DHT22;8185;57.818;15.224;2023-07-20T14:49:17;23.20;99.90
16160;DHT22;8185;57.818;15.224;2023-07-20T14:51:45;22.10;99.90
16160;DHT22;8185;57.818;15.224;2023-07-20T14:54:12;20.70;99.90
16160;DHT22;8185;57.818;15.224;2023-07-20T14:56:50;19.60;99.90
16160;DHT22;8185;57.818;15.224;2023-07-20T14:59:20;18.90;99.90
16160;DHT22;8185;57.818;15.224;2023-07-20T15:01:47;18.50;99.90
16160;DHT22;8185;57.818;15.224;2023-07-20T15:04:15;18.30;99.90
16160;DHT22;8185;57.818;15.224;2023-07-20T15:06:42;18.50;99.90
16160;DHT22;8185;57.818;15.224;2023-07-20T15:09:09;18.80;99.90
16160;DHT22;8185;57.818;15.224;2023-07-20T15:11:37;18.50;99.90
16160;DHT22;8185;57.818;15.224;2023-07-20T15:14:04;18.60;99.90
16160;DHT22;8185;57.818;15.224;2023-07-20T15:16:33;18.80;99.90
16160;DHT22;8185;57.818;15.224;2023-07-20T15:19:01;19.30;99.90
16160;DHT22;8185;57.818;15.224;2023-07-20T15:21:29;21.00;99.90
16160;DHT22;8185;57.818;15.224;2023-07-20T15:23:57;20.40;99.90
16160;DHT22;8185;57.818;15.224;2023-07-20T15:26:25;19.90;99.90
16160;DHT22;8185;57.818;15.224;2023-07-20T15:28:52;19.20;99.90
16160;DHT22;8185;57.818;15.224;2023-07-20T15:31:19;20.60;99.90
16160;DHT22;8185;57.818;15.224;2023-07-20T15:33:48;22.80;99.90
16160;DHT22;8185;57.818;15.224;2023-07-20T15:36:15;24.00;99.90
16160;DHT22;8185;57.818;15.224;2023-07-20T15:38:43;25.10;99.90
16160;DHT22;8185;57.818;15.224;2023-07-20T15:41:10;25.40;99.90
16160;DHT22;8185;57.818;15.224;2023-07-20T15:43:38;24.30;99.90